createdAt,value
2023-02-01T00:00:58.267Z,10.45
2023-02-01T00:02:29.632Z,10.63
2023-02-01T00:04:01.021Z,8.96
2023-02-01T00:05:32.245Z,11.18
2023-02-01T00:07:03.519Z,12.19
2023-02-01T00:08:34.787Z,11.46
2023-02-01T00:10:06.241Z,10.67
2023-02-01T00:11:37.711Z,7.77
2023-02-01T00:13:09.389Z,9.18
2023-02-01T00:14:41.405Z,8.95
2023-02-01T00:16:13.205Z,9.57
2023-02-01T00:17:44.539Z,6.67
2023-02-01T00:19:15.811Z,9.31
2023-02-01T00:20:47.168Z,9.01
2023-02-01T00:22:18.463Z,8.85
2023-02-01T00:23:49.686Z,9.20
2023-02-01T00:25:21.055Z,8.04
2023-02-01T00:26:52.680Z,6.09
2023-02-01T00:28:24.059Z,7.01
2023-02-01T00:29:55.289Z,7.77
2023-02-01T00:31:29.381Z,6.91
2023-02-01T00:33:01.172Z,5.73
2023-02-01T00:34:32.425Z,6.19
2023-02-01T00:36:03.712Z,6.81
2023-02-01T00:37:34.954Z,5.52
2023-02-01T00:39:06.210Z,5.76
2023-02-01T00:40:37.414Z,5.16
2023-02-01T00:42:08.671Z,4.70
2023-02-01T00:43:40.067Z,6.27
2023-02-01T00:45:12.520Z,4.25
2023-02-01T00:46:43.821Z,4.19
2023-02-01T00:48:15.567Z,5.32
2023-02-01T00:49:46.952Z,4.85
2023-02-01T00:51:18.944Z,4.61
2023-02-01T00:52:52.000Z,4.79
2023-02-01T00:54:23.461Z,5.53
2023-02-01T00:55:54.804Z,5.59
2023-02-01T00:57:26.188Z,4.59
2023-02-01T00:59:02.915Z,4.68
2023-02-01T01:00:34.285Z,5.22
2023-02-01T01:02:05.688Z,4.70
2023-02-01T01:03:37.265Z,4.70
2023-02-01T01:05:08.587Z,4.91
2023-02-01T01:06:40.067Z,4.50
2023-02-01T01:08:11.537Z,3.92
2023-02-01T01:09:42.881Z,4.85
2023-02-01T01:11:14.094Z,4.28
2023-02-01T01:12:45.321Z,4.45
2023-02-01T01:14:16.595Z,4.05
2023-02-01T01:15:48.199Z,3.50
2023-02-01T01:17:19.516Z,3.76
2023-02-01T01:18:50.895Z,4.06
2023-02-01T01:20:22.511Z,3.64
2023-02-01T01:21:54.031Z,3.87
2023-02-01T01:23:25.337Z,4.52
2023-02-01T01:24:56.825Z,4.37
2023-02-01T01:26:28.408Z,4.33
2023-02-01T01:27:59.727Z,3.31
2023-02-01T01:29:31.055Z,3.61
2023-02-01T01:31:02.503Z,4.10
2023-02-01T01:32:33.867Z,4.34
2023-02-01T01:34:05.166Z,4.20
2023-02-01T01:35:36.399Z,3.08
2023-02-01T01:37:07.733Z,4.43
2023-02-01T01:38:39.049Z,4.05
2023-02-01T01:40:10.674Z,5.18
2023-02-01T01:41:41.874Z,4.50
2023-02-01T01:43:13.122Z,3.84
2023-02-01T01:44:44.432Z,5.38
2023-02-01T01:46:15.939Z,4.68
2023-02-01T01:47:47.479Z,4.56
2023-02-01T01:49:18.787Z,4.77
2023-02-01T01:50:50.012Z,4.82
2023-02-01T01:52:21.689Z,4.00
2023-02-01T01:53:53.268Z,3.24
2023-02-01T01:55:24.685Z,4.57
2023-02-01T01:56:56.293Z,4.38
2023-02-01T01:58:27.795Z,4.66
2023-02-01T01:59:59.004Z,4.51
2023-02-01T02:01:30.276Z,4.87
2023-02-01T02:03:01.647Z,4.50
2023-02-01T02:04:32.984Z,3.75
2023-02-01T02:06:04.306Z,3.60
2023-02-01T02:09:07.181Z,5.74
2023-02-01T02:10:38.557Z,4.42
2023-02-01T02:12:09.894Z,3.99
2023-02-01T02:13:41.304Z,3.26
2023-02-01T02:15:12.596Z,4.02
2023-02-01T02:16:43.943Z,5.40
2023-02-01T02:18:15.493Z,4.03
2023-02-01T02:19:46.840Z,4.95
2023-02-01T02:21:18.351Z,5.11
2023-02-01T02:22:49.660Z,3.78
2023-02-01T02:24:20.961Z,3.50
2023-02-01T02:25:52.520Z,3.73
2023-02-01T02:27:24.121Z,4.43
2023-02-01T02:28:55.368Z,3.32
2023-02-01T02:30:26.903Z,3.66
2023-02-01T02:31:58.526Z,3.80
2023-02-01T02:33:30.125Z,3.55
2023-02-01T02:35:01.803Z,4.06
2023-02-01T02:36:33.207Z,3.73
2023-02-01T02:38:04.521Z,3.68
2023-02-01T02:39:35.913Z,4.24
2023-02-01T02:41:07.382Z,5.15
2023-02-01T02:42:38.785Z,4.17
2023-02-01T02:44:10.125Z,4.18
2023-02-01T02:45:41.498Z,3.72
2023-02-01T02:47:12.753Z,4.11
2023-02-01T02:48:44.083Z,3.03
2023-02-01T02:50:15.750Z,3.66
2023-02-01T02:51:47.202Z,3.47
2023-02-01T02:53:18.486Z,3.18
2023-02-01T02:54:50.029Z,4.33
2023-02-01T02:56:21.407Z,3.03
2023-02-01T02:57:52.668Z,3.14
2023-02-01T02:59:24.046Z,2.93
2023-02-01T03:00:55.400Z,3.94
2023-02-01T03:02:26.687Z,4.24
2023-02-01T03:03:58.154Z,3.61
2023-02-01T03:05:29.405Z,3.08
2023-02-01T03:07:00.685Z,3.25
2023-02-01T03:08:31.971Z,3.09
2023-02-01T03:10:03.193Z,2.90
2023-02-01T03:11:34.366Z,2.93
2023-02-01T03:13:05.856Z,3.37
2023-02-01T03:14:37.329Z,3.10
2023-02-01T03:16:08.857Z,3.80
2023-02-01T03:17:40.253Z,3.82
2023-02-01T03:19:11.562Z,2.60
2023-02-01T03:20:43.269Z,2.80
2023-02-01T03:22:14.538Z,3.25
2023-02-01T03:23:45.930Z,3.02
2023-02-01T03:25:17.308Z,3.18
2023-02-01T03:26:48.769Z,3.17
2023-02-01T03:28:20.140Z,3.09
2023-02-01T03:29:51.629Z,2.78
2023-02-01T03:31:23.046Z,2.47
2023-02-01T03:32:54.370Z,2.76
2023-02-01T03:34:25.630Z,2.69
2023-02-01T03:35:57.013Z,2.53
2023-02-01T03:37:28.292Z,2.61
2023-02-01T03:38:59.516Z,3.49
2023-02-01T03:40:31.009Z,2.71
2023-02-01T03:42:02.441Z,2.76
2023-02-01T03:43:33.721Z,3.02
2023-02-01T03:45:05.087Z,2.71
2023-02-01T03:46:36.691Z,3.09
2023-02-01T03:48:07.885Z,3.20
2023-02-01T03:49:39.400Z,3.05
2023-02-01T03:51:10.793Z,2.67
2023-02-01T03:52:42.083Z,3.12
2023-02-01T03:54:13.354Z,2.99
2023-02-01T03:55:44.706Z,3.02
2023-02-01T03:57:16.303Z,2.00
2023-02-01T03:58:47.665Z,3.30
2023-02-01T04:00:19.002Z,2.80
2023-02-01T04:01:50.411Z,3.24
2023-02-01T04:03:21.634Z,2.78
2023-02-01T04:04:52.878Z,3.18
2023-02-01T04:06:24.254Z,2.73
2023-02-01T04:07:55.863Z,2.05
2023-02-01T04:09:27.118Z,2.55
2023-02-01T04:10:58.564Z,3.33
2023-02-01T04:12:29.961Z,2.75
2023-02-01T04:14:01.246Z,3.48
2023-02-01T04:15:32.715Z,3.10
2023-02-01T04:17:04.017Z,3.00
2023-02-01T04:18:40.449Z,3.30
2023-02-01T04:20:11.826Z,3.24
2023-02-01T04:21:43.034Z,3.00
2023-02-01T04:23:15.629Z,3.33
2023-02-01T04:24:46.847Z,3.31
2023-02-01T04:26:18.364Z,3.03
2023-02-01T04:27:49.751Z,3.28
2023-02-01T04:29:21.045Z,2.79
2023-02-01T04:30:52.375Z,3.74
2023-02-01T04:32:23.656Z,2.85
2023-02-01T04:33:55.068Z,3.25
2023-02-01T04:35:26.459Z,3.39
2023-02-01T04:36:57.869Z,2.95
2023-02-01T04:38:29.403Z,2.85
2023-02-01T04:40:00.856Z,3.27
2023-02-01T04:41:32.195Z,2.98
2023-02-01T04:43:03.575Z,3.39
2023-02-01T04:44:34.882Z,3.36
2023-02-01T04:46:06.234Z,3.01
2023-02-01T04:47:37.518Z,3.45
2023-02-01T04:49:08.829Z,3.37
2023-02-01T04:50:40.097Z,3.89
2023-02-01T04:52:11.345Z,3.16
2023-02-01T04:53:42.617Z,2.94
2023-02-01T04:55:14.105Z,3.00
2023-02-01T04:56:45.396Z,3.06
2023-02-01T04:58:16.921Z,3.14
2023-02-01T04:59:48.507Z,3.72
2023-02-01T05:01:19.835Z,3.65
2023-02-01T05:02:51.185Z,3.71
2023-02-01T05:04:22.801Z,3.68
2023-02-01T05:05:54.276Z,2.76
2023-02-01T05:08:08.307Z,3.33
2023-02-01T05:10:13.133Z,3.31
2023-02-01T05:15:47.117Z,2.70
2023-02-01T05:17:44.005Z,2.87
2023-02-01T05:20:01.557Z,3.57
2023-02-01T05:21:33.547Z,3.48
2023-02-01T05:23:10.821Z,2.43
2023-02-01T05:24:42.201Z,3.58
2023-02-01T05:26:14.506Z,3.25
2023-02-01T05:27:45.911Z,3.44
2023-02-01T05:29:17.463Z,4.36
2023-02-01T05:30:49.054Z,3.91
2023-02-01T05:32:22.722Z,2.96
2023-02-01T05:33:54.344Z,3.22
2023-02-01T05:35:25.696Z,3.50
2023-02-01T05:36:58.124Z,3.95
2023-02-01T05:38:29.493Z,3.64
2023-02-01T05:40:02.115Z,3.50
2023-02-01T05:41:33.487Z,4.65
2023-02-01T05:43:04.844Z,2.96
2023-02-01T05:44:36.157Z,2.68
2023-02-01T05:46:07.431Z,3.72
2023-02-01T05:47:38.672Z,3.87
2023-02-01T05:49:09.960Z,3.24
2023-02-01T05:50:41.244Z,2.71
2023-02-01T05:52:12.525Z,4.22
2023-02-01T05:53:43.811Z,2.88
2023-02-01T05:55:15.063Z,3.18
2023-02-01T05:56:46.363Z,3.53
2023-02-01T05:58:17.690Z,3.33
2023-02-01T05:59:49.155Z,2.96
2023-02-01T06:01:20.459Z,3.38
2023-02-01T06:02:52.084Z,3.94
2023-02-01T06:04:23.824Z,3.51
2023-02-01T06:05:55.287Z,3.68
2023-02-01T06:07:29.393Z,3.64
2023-02-01T06:09:01.084Z,3.25
2023-02-01T06:10:32.497Z,3.56
2023-02-01T06:12:03.816Z,2.75
2023-02-01T06:13:35.203Z,2.46
2023-02-01T06:15:06.554Z,3.47
2023-02-01T06:16:38.082Z,3.36
2023-02-01T06:18:09.277Z,3.22
2023-02-01T06:19:40.715Z,3.25
2023-02-01T06:21:12.063Z,3.48
2023-02-01T06:23:13.465Z,3.16
2023-02-01T06:24:44.844Z,3.84
2023-02-01T06:26:16.168Z,3.60
2023-02-01T06:27:47.426Z,2.61
2023-02-01T06:29:18.701Z,3.09
2023-02-01T06:30:50.192Z,2.82
2023-02-01T06:32:21.448Z,3.15
2023-02-01T06:33:53.199Z,2.99
2023-02-01T06:35:24.436Z,3.72
2023-02-01T06:36:55.687Z,3.83
2023-02-01T06:38:27.036Z,3.02
2023-02-01T06:39:58.651Z,3.08
2023-02-01T06:41:29.957Z,3.28
2023-02-01T06:43:01.549Z,2.95
2023-02-01T06:44:32.772Z,3.36
2023-02-01T06:46:04.173Z,2.69
2023-02-01T06:47:35.417Z,2.64
2023-02-01T06:49:06.760Z,2.79
2023-02-01T06:50:38.208Z,3.08
2023-02-01T06:52:09.701Z,3.39
2023-02-01T06:53:41.001Z,4.04
2023-02-01T06:55:12.326Z,3.53
2023-02-01T06:56:43.738Z,4.48
2023-02-01T06:58:15.262Z,2.90
2023-02-01T06:59:46.650Z,3.06
2023-02-01T07:01:23.072Z,3.24
2023-02-01T07:02:54.455Z,3.82
2023-02-01T07:04:25.865Z,3.99
2023-02-01T07:05:57.395Z,3.27
2023-02-01T07:07:28.947Z,3.09
2023-02-01T07:09:00.216Z,3.07
2023-02-01T07:10:31.465Z,2.97
2023-02-01T07:12:02.955Z,2.96
2023-02-01T07:13:34.174Z,3.88
2023-02-01T07:15:05.433Z,2.94
2023-02-01T07:16:36.904Z,3.65
2023-02-01T07:18:08.253Z,3.71
2023-02-01T07:19:39.637Z,4.30
2023-02-01T07:21:10.912Z,4.30
2023-02-01T07:22:42.309Z,5.40
2023-02-01T07:24:13.523Z,3.71
2023-02-01T07:25:44.715Z,4.31
2023-02-01T07:27:16.200Z,3.06
2023-02-01T07:28:47.786Z,3.39
2023-02-01T07:30:19.572Z,3.59
2023-02-01T07:31:50.805Z,3.36
2023-02-01T07:33:22.106Z,3.89
2023-02-01T07:34:53.783Z,3.28
2023-02-01T07:36:25.098Z,2.94
2023-02-01T07:37:56.369Z,2.94
2023-02-01T07:39:27.663Z,4.12
2023-02-01T07:40:59.217Z,3.29
2023-02-01T07:42:30.937Z,4.33
2023-02-01T07:44:02.200Z,3.42
2023-02-01T07:45:36.630Z,3.43
2023-02-01T07:47:08.197Z,3.93
2023-02-01T07:48:39.611Z,3.83
2023-02-01T07:50:10.944Z,3.59
2023-02-01T07:51:42.508Z,4.04
2023-02-01T07:53:15.323Z,3.65
2023-02-01T07:54:47.207Z,4.57
2023-02-01T07:56:18.444Z,3.18
2023-02-01T07:57:49.827Z,2.85
2023-02-01T07:59:21.390Z,3.04
2023-02-01T08:00:52.688Z,3.86
2023-02-01T08:02:23.976Z,3.87
2023-02-01T08:03:55.583Z,4.02
2023-02-01T08:05:26.946Z,3.04
2023-02-01T08:06:58.325Z,3.21
2023-02-01T08:08:29.799Z,3.78
2023-02-01T08:10:01.202Z,3.75
2023-02-01T08:11:32.688Z,3.43
2023-02-01T08:13:04.231Z,3.25
2023-02-01T08:14:35.611Z,3.65
2023-02-01T08:16:07.118Z,3.56
2023-02-01T08:17:38.751Z,3.19
2023-02-01T08:19:10.008Z,3.23
2023-02-01T08:20:41.365Z,3.74
2023-02-01T08:22:12.670Z,3.80
2023-02-01T08:23:44.096Z,4.50
2023-02-01T08:25:15.866Z,3.74
2023-02-01T08:26:47.186Z,4.17
2023-02-01T08:28:18.690Z,4.99
2023-02-01T08:29:50.012Z,3.82
2023-02-01T08:31:21.659Z,4.83
2023-02-01T08:32:53.676Z,3.74
2023-02-01T08:34:25.041Z,3.98
2023-02-01T08:35:56.456Z,3.94
2023-02-01T08:37:27.668Z,4.56
2023-02-01T08:38:59.251Z,4.35
2023-02-01T08:40:30.668Z,4.50
2023-02-01T08:42:02.015Z,4.51
2023-02-01T08:43:33.351Z,3.71
2023-02-01T08:45:04.745Z,4.11
2023-02-01T08:46:36.310Z,3.66
2023-02-01T08:48:07.785Z,3.76
2023-02-01T08:49:39.087Z,5.50
2023-02-01T08:51:10.431Z,4.37
2023-02-01T08:52:41.711Z,3.54
2023-02-01T08:54:13.378Z,3.65
2023-02-01T08:55:45.044Z,3.44
2023-02-01T08:57:16.952Z,3.90
2023-02-01T08:58:48.469Z,4.11
2023-02-01T09:00:19.925Z,3.02
2023-02-01T09:01:51.285Z,4.48
2023-02-01T09:03:22.607Z,4.57
2023-02-01T09:04:54.809Z,3.76
2023-02-01T09:06:26.248Z,3.50
2023-02-01T09:07:57.929Z,4.02
2023-02-01T09:09:29.480Z,3.77
2023-02-01T09:11:03.075Z,3.73
2023-02-01T09:12:34.887Z,4.76
2023-02-01T09:14:11.252Z,4.05
2023-02-01T09:15:42.819Z,4.61
2023-02-01T09:17:14.228Z,3.74
2023-02-01T09:18:55.620Z,2.90
2023-02-01T09:20:39.574Z,3.36
2023-02-01T09:22:11.023Z,4.89
2023-02-01T09:23:42.316Z,3.77
2023-02-01T09:25:13.745Z,3.12
2023-02-01T09:26:45.236Z,3.25
2023-02-01T09:28:16.598Z,4.28
2023-02-01T09:29:48.293Z,4.73
2023-02-01T09:31:20.119Z,3.74
2023-02-01T09:32:51.522Z,3.46
2023-02-01T09:34:23.144Z,3.69
2023-02-01T09:35:54.801Z,3.44
2023-02-01T09:37:26.498Z,4.04
2023-02-01T09:38:57.979Z,3.77
2023-02-01T09:40:29.404Z,3.65
2023-02-01T09:42:35.270Z,3.71
2023-02-01T09:44:08.655Z,3.23
2023-02-01T09:45:40.030Z,3.28
2023-02-01T09:47:11.405Z,3.65
2023-02-01T09:48:42.702Z,3.48
2023-02-01T09:50:13.987Z,3.97
2023-02-01T09:51:56.377Z,3.27
2023-02-01T09:53:58.178Z,4.45
2023-02-01T09:55:29.610Z,3.71
2023-02-01T09:57:11.086Z,2.96
2023-02-01T09:58:42.403Z,3.17
2023-02-01T10:00:13.679Z,4.01
2023-02-01T10:01:45.063Z,4.49
2023-02-01T10:03:16.528Z,3.72
2023-02-01T10:04:47.893Z,2.95
2023-02-01T10:06:19.251Z,3.82
2023-02-01T10:07:50.542Z,3.82
2023-02-01T10:09:21.841Z,3.15
2023-02-01T10:10:53.192Z,3.07
2023-02-01T10:12:31.041Z,3.83
2023-02-01T10:14:02.566Z,3.65
2023-02-01T10:15:46.059Z,3.67
2023-02-01T10:17:17.650Z,3.35
2023-02-01T10:18:49.025Z,3.32
2023-02-01T10:20:20.422Z,3.74
2023-02-01T10:21:52.244Z,4.54
2023-02-01T10:23:34.129Z,3.88
2023-02-01T10:25:06.198Z,3.62
2023-02-01T10:26:37.736Z,3.50
2023-02-01T10:28:09.166Z,3.41
2023-02-01T10:29:41.072Z,3.70
2023-02-01T10:31:12.654Z,3.75
2023-02-01T10:33:28.118Z,3.53
2023-02-01T10:35:00.421Z,3.80
2023-02-01T10:36:31.970Z,3.32
2023-02-01T10:38:03.806Z,3.41
2023-02-01T10:39:35.193Z,3.40
2023-02-01T10:41:06.805Z,3.25
2023-02-01T10:42:43.230Z,3.69
2023-02-01T10:44:14.536Z,2.82
2023-02-01T10:45:45.868Z,3.16
2023-02-01T10:47:18.337Z,3.63
2023-02-01T10:48:49.645Z,3.64
2023-02-01T10:50:21.094Z,3.84
2023-02-01T10:51:52.575Z,3.43
2023-02-01T10:53:24.007Z,3.82
2023-02-01T10:54:55.292Z,3.76
2023-02-01T10:56:26.614Z,3.33
2023-02-01T10:58:37.852Z,2.78
2023-02-01T11:00:10.878Z,3.94
2023-02-01T11:01:42.499Z,4.20
2023-02-01T11:03:14.106Z,3.28
2023-02-01T11:05:01.412Z,2.72
2023-02-01T11:06:32.922Z,3.36
2023-02-01T11:08:04.090Z,3.59
2023-02-01T11:09:35.424Z,3.50
2023-02-01T11:11:06.682Z,2.55
2023-02-01T11:12:37.969Z,3.37
2023-02-01T11:14:09.843Z,3.72
2023-02-01T11:15:41.397Z,3.84
2023-02-01T11:17:12.589Z,4.08
2023-02-01T11:18:44.044Z,4.27
2023-02-01T11:20:15.319Z,3.35
2023-02-01T11:21:46.881Z,3.72
2023-02-01T11:23:18.151Z,3.98
2023-02-01T11:24:49.412Z,3.21
2023-02-01T11:26:20.934Z,3.58
2023-02-01T11:27:55.238Z,2.80
2023-02-01T11:29:26.919Z,3.20
2023-02-01T11:30:58.335Z,3.00
2023-02-01T11:32:30.038Z,3.31
2023-02-01T11:34:01.504Z,4.07
2023-02-01T11:35:32.835Z,4.43
2023-02-01T11:37:04.268Z,2.97
2023-02-01T11:38:35.824Z,3.15
2023-02-01T11:40:07.464Z,2.94
2023-02-01T11:41:38.875Z,3.46
2023-02-01T11:43:10.344Z,3.98
2023-02-01T11:44:41.772Z,2.92
2023-02-01T11:46:12.995Z,2.97
2023-02-01T11:47:44.492Z,3.50
2023-02-01T11:49:15.901Z,3.67
2023-02-01T11:50:47.164Z,2.93
2023-02-01T11:52:19.089Z,3.74
2023-02-01T11:53:50.674Z,3.99
2023-02-01T11:55:22.144Z,4.16
2023-02-01T11:56:53.585Z,3.04
2023-02-01T11:58:25.151Z,4.07
2023-02-01T11:59:57.259Z,2.92
2023-02-01T12:01:29.089Z,2.54
2023-02-01T12:03:00.473Z,3.96
2023-02-01T12:04:31.960Z,3.27
2023-02-01T12:06:03.242Z,3.04
2023-02-01T12:07:34.581Z,3.53
2023-02-01T12:09:05.998Z,2.90
2023-02-01T12:10:37.510Z,2.74
2023-02-01T12:12:08.781Z,3.94
2023-02-01T12:13:40.109Z,4.71
2023-02-01T12:15:11.363Z,3.86
2023-02-01T12:16:42.645Z,3.92
2023-02-01T12:18:13.925Z,4.00
2023-02-01T12:19:45.247Z,3.24
2023-02-01T12:21:16.502Z,3.06
2023-02-01T12:22:47.788Z,3.20
2023-02-01T12:24:19.169Z,3.04
2023-02-01T12:25:50.556Z,3.29
2023-02-01T12:27:21.800Z,3.53
2023-02-01T12:28:53.237Z,3.50
2023-02-01T12:30:24.876Z,3.00
2023-02-01T12:31:56.558Z,3.32
2023-02-01T12:33:27.857Z,3.40
2023-02-01T12:34:59.169Z,4.23
2023-02-01T12:36:30.645Z,4.19
2023-02-01T12:38:01.954Z,3.50
2023-02-01T12:39:33.166Z,3.38
2023-02-01T12:41:04.653Z,3.04
2023-02-01T12:42:36.112Z,2.86
2023-02-01T12:44:07.376Z,3.23
2023-02-01T12:45:38.822Z,4.20
2023-02-01T12:47:10.050Z,4.18
2023-02-01T12:48:42.973Z,3.80
2023-02-01T12:50:14.440Z,3.42
2023-02-01T12:51:45.995Z,3.09
2023-02-01T12:53:17.450Z,2.84
2023-02-01T12:54:48.826Z,3.33
2023-02-01T12:56:20.551Z,3.52
2023-02-01T12:57:52.142Z,3.36
2023-02-01T13:01:21.708Z,2.36
2023-02-01T13:02:53.393Z,2.75
2023-02-01T13:04:24.665Z,3.82
2023-02-01T13:05:56.099Z,3.80
2023-02-01T13:07:27.869Z,3.55
2023-02-01T13:08:59.378Z,4.54
2023-02-01T13:10:30.757Z,3.34
2023-02-01T13:12:02.494Z,3.51
2023-02-01T13:13:34.082Z,3.45
2023-02-01T13:15:05.553Z,3.63
2023-02-01T13:16:37.078Z,3.03
2023-02-01T13:18:08.372Z,3.58
2023-02-01T13:19:39.646Z,2.78
2023-02-01T13:21:10.884Z,4.11
2023-02-01T13:22:42.167Z,4.16
2023-02-01T13:24:13.439Z,3.73
2023-02-01T13:25:44.875Z,4.33
2023-02-01T13:27:16.333Z,3.63
2023-02-01T13:28:47.678Z,3.82
2023-02-01T13:30:19.492Z,3.16
2023-02-01T13:31:51.724Z,2.82
2023-02-01T13:33:53.728Z,2.59
2023-02-01T13:35:27.520Z,3.61
2023-02-01T13:37:29.952Z,3.11
2023-02-01T13:39:01.248Z,2.97
2023-02-01T13:40:32.645Z,3.83
2023-02-01T13:42:04.278Z,3.23
2023-02-01T13:43:35.685Z,2.62
2023-02-01T13:45:06.950Z,2.51
2023-02-01T13:46:38.347Z,2.44
2023-02-01T13:48:09.722Z,2.61
2023-02-01T13:49:41.323Z,3.57
2023-02-01T13:51:12.886Z,3.11
2023-02-01T13:52:44.292Z,3.11
2023-02-01T13:54:15.702Z,2.84
2023-02-01T13:55:47.273Z,3.07
2023-02-01T13:57:20.889Z,3.62
2023-02-01T13:58:52.105Z,2.17
2023-02-01T14:00:23.422Z,1.96
2023-02-01T14:01:54.775Z,2.47
2023-02-01T14:03:26.073Z,3.34
2023-02-01T14:04:57.474Z,2.68
2023-02-01T14:06:28.927Z,2.66
2023-02-01T14:08:00.260Z,2.44
2023-02-01T14:09:31.623Z,2.93
2023-02-01T14:11:03.146Z,2.89
2023-02-01T14:12:34.418Z,2.34
2023-02-01T14:14:05.848Z,2.75
2023-02-01T14:15:37.109Z,2.49
2023-02-01T14:17:08.619Z,2.92
2023-02-01T14:18:39.901Z,2.50
2023-02-01T14:20:11.258Z,2.46
2023-02-01T14:21:42.912Z,3.06
2023-02-01T14:23:14.620Z,1.98
2023-02-01T14:24:45.908Z,2.30
2023-02-01T14:26:22.456Z,2.28
2023-02-01T14:27:53.706Z,2.46
2023-02-01T14:29:24.984Z,3.10
2023-02-01T14:30:56.445Z,2.49
2023-02-01T14:32:27.863Z,2.64
2023-02-01T14:33:59.257Z,2.31
2023-02-01T14:35:30.715Z,2.71
2023-02-01T14:37:02.269Z,2.02
2023-02-01T14:38:33.529Z,2.45
2023-02-01T14:40:04.888Z,2.53
2023-02-01T14:41:36.192Z,2.54
2023-02-01T14:43:07.703Z,2.83
2023-02-01T14:44:58.913Z,3.58
2023-02-01T14:46:31.473Z,3.47
2023-02-01T14:48:02.698Z,2.79
2023-02-01T14:49:34.317Z,2.99
2023-02-01T14:51:05.941Z,2.89
2023-02-01T14:52:37.255Z,3.40
2023-02-01T14:54:08.701Z,2.92
2023-02-01T14:55:40.215Z,3.06
2023-02-01T14:57:11.582Z,2.69
2023-02-01T14:58:42.906Z,3.47
2023-02-01T15:00:14.653Z,2.40
2023-02-01T15:01:46.023Z,2.68
2023-02-01T15:03:17.499Z,3.61
2023-02-01T15:04:48.778Z,3.24
2023-02-01T15:06:20.263Z,3.21
2023-02-01T15:07:51.527Z,2.97
2023-02-01T15:09:22.791Z,2.99
2023-02-01T15:10:54.114Z,2.89
2023-02-01T15:12:25.693Z,3.70
2023-02-01T15:13:57.053Z,3.99
2023-02-01T15:15:28.432Z,3.62
2023-02-01T15:16:59.790Z,3.22
2023-02-01T15:18:31.063Z,2.74
2023-02-01T15:20:02.426Z,2.90
2023-02-01T15:21:36.121Z,3.12
2023-02-01T15:23:07.450Z,2.40
2023-02-01T15:24:38.647Z,2.29
2023-02-01T15:26:09.925Z,3.34
2023-02-01T15:27:41.398Z,3.34
2023-02-01T15:29:12.779Z,2.70
2023-02-01T15:30:44.102Z,3.07
2023-02-01T15:32:15.515Z,3.31
2023-02-01T15:33:46.992Z,3.78
2023-02-01T15:35:18.435Z,2.69
2023-02-01T15:37:01.937Z,2.57
2023-02-01T15:38:34.516Z,2.52
2023-02-01T15:40:37.689Z,2.44
2023-02-01T15:42:09.130Z,2.72
2023-02-01T15:43:40.682Z,2.90
2023-02-01T15:45:32.797Z,2.95
2023-02-01T15:47:06.290Z,2.49
2023-02-01T15:48:48.873Z,2.68
2023-02-01T15:51:06.583Z,2.65
2023-02-01T15:53:01.503Z,2.59
2023-02-01T15:54:54.762Z,3.32
2023-02-01T15:56:56.320Z,2.71
2023-02-01T15:58:28.379Z,3.41
2023-02-01T16:00:30.798Z,2.60
2023-02-01T16:02:13.048Z,2.17
2023-02-01T16:03:44.851Z,2.95
2023-02-01T16:05:16.527Z,2.42
2023-02-01T16:07:05.996Z,2.35
2023-02-01T16:08:38.898Z,2.87
2023-02-01T16:10:10.235Z,2.99
2023-02-01T16:11:41.545Z,2.30
2023-02-01T16:13:13.276Z,2.55
2023-02-01T16:15:44.725Z,3.56
2023-02-01T16:17:16.822Z,2.62
2023-02-01T16:18:48.474Z,3.48
2023-02-01T16:20:20.363Z,3.57
2023-02-01T16:21:51.835Z,3.25
2023-02-01T16:23:23.647Z,3.40
2023-02-01T16:24:55.315Z,2.95
2023-02-01T16:26:28.292Z,2.49
2023-02-01T16:28:00.252Z,2.69
2023-02-01T16:29:36.940Z,2.65
2023-02-01T16:31:08.925Z,3.17
2023-02-01T16:32:45.364Z,2.44
2023-02-01T16:34:17.006Z,3.39
2023-02-01T16:35:53.713Z,2.88
2023-02-01T16:37:25.259Z,3.04
2023-02-01T16:39:17.964Z,3.61
2023-02-01T16:40:50.065Z,3.16
2023-02-01T16:42:27.341Z,3.09
2023-02-01T16:43:59.019Z,3.96
2023-02-01T16:47:38.729Z,3.71
2023-02-01T16:49:10.396Z,3.28
2023-02-01T16:50:46.704Z,3.07
2023-02-01T16:52:18.524Z,2.50
2023-02-01T16:53:54.582Z,2.54
2023-02-01T16:55:38.504Z,3.19
2023-02-01T16:57:10.542Z,3.44
2023-02-01T16:58:41.956Z,4.40
2023-02-01T17:00:24.121Z,4.23
2023-02-01T17:01:56.690Z,4.82
2023-02-01T17:03:27.968Z,4.79
2023-02-01T17:04:59.413Z,3.33
2023-02-01T17:06:31.016Z,5.17
2023-02-01T17:08:02.707Z,5.05
2023-02-01T17:09:34.280Z,4.22
2023-02-01T17:11:15.673Z,3.42
2023-02-01T17:13:02.335Z,3.67
2023-02-01T17:14:34.424Z,3.32
2023-02-01T17:16:06.528Z,3.25
2023-02-01T17:17:39.473Z,2.93
2023-02-01T17:19:11.401Z,2.26
2023-02-01T17:23:04.595Z,2.08
2023-02-01T17:24:48.331Z,2.22
2023-02-01T17:26:45.398Z,1.84
2023-02-01T17:28:36.488Z,1.81
2023-02-01T17:30:08.254Z,1.90
2023-02-01T17:31:39.846Z,1.66
2023-02-01T17:33:21.837Z,1.51
2023-02-01T17:34:53.794Z,2.12
2023-02-01T17:36:31.397Z,2.05
2023-02-01T17:38:02.768Z,1.63
2023-02-01T17:40:19.155Z,2.08
2023-02-01T17:42:01.820Z,2.76
2023-02-01T17:43:49.040Z,3.24
2023-02-01T17:45:58.477Z,2.72
2023-02-01T17:47:48.444Z,2.18
2023-02-01T17:49:19.680Z,3.59
2023-02-01T17:50:51.073Z,3.18
2023-02-01T17:52:22.503Z,3.66
2023-02-01T17:53:54.401Z,3.80
2023-02-01T17:55:26.148Z,4.21
2023-02-01T17:56:57.735Z,4.35
2023-02-01T17:58:29.055Z,4.20
2023-02-01T18:00:00.449Z,5.00
2023-02-01T18:01:31.858Z,4.73
2023-02-01T18:03:03.347Z,5.70
2023-02-01T18:04:34.660Z,4.31
2023-02-01T18:06:05.866Z,3.54
2023-02-01T18:07:37.265Z,3.61
2023-02-01T18:11:28.550Z,5.43
2023-02-01T18:13:05.431Z,5.53
2023-02-01T18:14:42.586Z,5.74
2023-02-01T18:16:34.219Z,4.82
2023-02-01T18:18:25.963Z,5.65
2023-02-01T18:19:57.871Z,4.16
2023-02-01T18:21:29.475Z,4.77
2023-02-01T18:23:01.099Z,4.07
2023-02-01T18:24:32.811Z,2.88
2023-02-01T18:26:04.455Z,3.87
2023-02-01T18:27:36.171Z,4.04
2023-02-01T18:29:07.419Z,3.75
2023-02-01T18:30:38.799Z,3.97
2023-02-01T18:32:15.334Z,5.91
2023-02-01T18:33:46.596Z,5.55
2023-02-01T18:35:17.987Z,4.48
2023-02-01T18:37:17.516Z,2.61
2023-02-01T18:38:50.085Z,1.51
2023-02-01T18:40:21.506Z,1.30
2023-02-01T18:41:53.075Z,1.13
2023-02-01T18:43:24.799Z,1.35
2023-02-01T18:44:57.204Z,1.52
2023-02-01T18:46:29.229Z,1.69
2023-02-01T18:48:10.880Z,1.47
2023-02-01T18:49:42.344Z,1.29
2023-02-01T18:51:41.451Z,1.56
2023-02-01T18:53:13.454Z,1.36
2023-02-01T18:54:58.843Z,2.00
2023-02-01T18:56:31.310Z,2.68
2023-02-01T18:58:03.187Z,2.03
2023-02-01T18:59:35.059Z,1.76
2023-02-01T19:01:16.701Z,1.86
2023-02-01T19:02:48.575Z,2.28
2023-02-01T19:04:30.524Z,2.04
2023-02-01T19:06:03.377Z,2.43
2023-02-01T19:07:39.957Z,2.62
2023-02-01T19:09:11.623Z,2.75
2023-02-01T19:10:44.141Z,3.16
2023-02-01T19:12:18.098Z,2.75
2023-02-01T19:14:23.053Z,2.39
2023-02-01T19:15:54.526Z,2.21
2023-02-01T19:17:26.038Z,2.43
2023-02-01T19:18:57.614Z,2.65
2023-02-01T19:20:29.177Z,2.39
2023-02-01T19:22:05.414Z,2.39
2023-02-01T19:23:36.807Z,3.11
2023-02-01T19:25:08.209Z,2.62
2023-02-01T19:26:39.460Z,2.78
2023-02-01T19:28:10.713Z,2.95
2023-02-01T19:30:02.782Z,3.42
2023-02-01T19:31:34.244Z,1.98
2023-02-01T19:33:05.739Z,2.42
2023-02-01T19:34:42.259Z,2.28
2023-02-01T19:36:13.781Z,2.66
2023-02-01T19:39:52.210Z,2.00
2023-02-01T19:41:24.074Z,2.45
2023-02-01T19:42:55.994Z,2.57
2023-02-01T19:44:28.252Z,2.92
2023-02-01T19:46:00.559Z,2.67
2023-02-01T19:47:33.144Z,3.42
2023-02-01T19:49:27.158Z,3.80
2023-02-01T19:50:58.437Z,3.43
2023-02-01T19:52:29.665Z,3.63
2023-02-01T19:54:01.318Z,3.04
2023-02-01T19:55:46.627Z,2.36
2023-02-01T19:57:18.308Z,1.74
2023-02-01T19:58:49.733Z,1.51
2023-02-01T20:00:20.210Z,1.53
2023-02-01T20:01:51.625Z,1.29
2023-02-01T20:03:22.896Z,1.58
2023-02-01T20:04:54.345Z,1.37
2023-02-01T20:06:25.790Z,1.48
2023-02-01T20:07:57.200Z,1.38
2023-02-01T20:09:28.471Z,1.28
2023-02-01T20:11:04.832Z,1.37
2023-02-01T20:12:36.093Z,1.56
2023-02-01T20:14:07.418Z,1.51
2023-02-01T20:15:38.696Z,1.23
2023-02-01T20:17:09.894Z,1.37
2023-02-01T20:18:41.230Z,1.40
2023-02-01T20:20:18.712Z,1.47
2023-02-01T20:21:49.930Z,1.37
2023-02-01T20:23:35.906Z,1.49
2023-02-01T20:25:17.192Z,1.50
2023-02-01T20:26:50.616Z,1.45
2023-02-01T20:28:22.268Z,1.49
2023-02-01T20:30:06.219Z,1.56
2023-02-01T20:31:39.822Z,1.22
2023-02-01T20:33:21.350Z,1.43
2023-02-01T20:35:02.635Z,1.94
2023-02-01T20:36:54.243Z,1.48
2023-02-01T20:38:30.573Z,1.24
2023-02-01T20:40:07.225Z,1.21
2023-02-01T20:42:11.717Z,1.56
2023-02-01T20:43:46.977Z,1.62
2023-02-01T20:45:28.282Z,1.62
2023-02-01T20:46:59.690Z,2.06
2023-02-01T20:48:31.065Z,1.56
2023-02-01T20:50:02.303Z,1.78
2023-02-01T20:51:43.739Z,2.04
2023-02-01T20:53:26.079Z,1.70
2023-02-01T20:54:58.291Z,1.74
2023-02-01T20:56:29.626Z,1.98
2023-02-01T20:58:01.066Z,1.61
2023-02-01T20:59:32.441Z,1.55
2023-02-01T21:01:03.930Z,1.74